Time;durP1;ratioP1;P1;durP2;ratioP2;P2;SDS_P1;SDS_P2;PMS_P1;PMS_P2;Temp;Humidity;BMP_temperature;BMP_pressure;BME280_temperature;BME280_humidity;BME280_pressure;Samples;Min_cycle;Max_cycle;Signal;HPM_P1;HPM_P2
2024/01/07 00:01:55;;;;;;;16.30;13.10;;;3.90;94.00;;;2.93;100.00;97297.38;5055599;28;20467;-76
2024/01/07 00:04:22;;;;;;;18.30;13.27;;;3.80;93.40;;;2.89;100.00;97271.25;5051148;28;20457;-77
2024/01/07 00:06:50;;;;;;;19.37;13.00;;;3.70;94.00;;;2.54;100.00;97232.63;5051327;28;20902;-77
2024/01/07 00:09:18;;;;;;;14.87;12.67;;;3.80;94.00;;;2.83;100.00;97294.16;5058169;28;20503;-76
2024/01/07 00:11:45;;;;;;;19.03;13.03;;;3.70;94.10;;;2.37;100.00;97212.47;5043769;28;20495;-77
2024/01/07 00:14:13;;;;;;;15.07;13.07;;;3.70;94.60;;;2.97;100.00;97287.19;5044908;28;20497;-77
2024/01/07 00:16:41;;;;;;;13.20;11.80;;;3.70;94.50;;;2.98;100.00;97286.16;5043513;28;20826;-78
2024/01/07 00:19:09;;;;;;;19.27;12.87;;;3.70;94.60;;;2.49;100.00;97237.66;5043920;28;20456;-78
2024/01/07 00:21:35;;;;;;;17.87;13.63;;;3.70;94.20;;;2.90;100.00;97275.56;5045013;28;20462;-77
2024/01/07 00:24:02;;;;;;;21.23;14.27;;;3.70;94.40;;;2.77;100.00;97271.69;5047861;28;20462;-76
2024/01/07 00:26:31;;;;;;;18.80;13.33;;;3.70;94.10;;;2.96;99.88;97291.69;5047921;28;20463;-76
2024/01/07 00:28:58;;;;;;;17.93;14.27;;;3.70;94.30;;;3.04;100.00;97292.59;5059335;28;20468;-78
2024/01/07 00:31:25;;;;;;;16.10;13.10;;;3.70;94.70;;;3.08;100.00;97297.38;5049924;28;20459;-78
2024/01/07 00:33:53;;;;;;;18.93;14.17;;;3.80;94.50;;;3.04;100.00;97296.09;5048608;28;20444;-79
2024/01/07 00:36:20;;;;;;;16.60;12.63;;;3.80;94.40;;;2.79;100.00;97269.66;5044843;28;20554;-79
2024/01/07 00:38:47;;;;;;;15.40;12.90;;;3.70;94.10;;;3.02;100.00;97292.78;5047886;28;20536;-80
2024/01/07 00:41:15;;;;;;;19.63;12.50;;;3.70;94.20;;;2.89;99.51;97264.09;5061284;28;20503;-79
2024/01/07 00:43:43;;;;;;;16.30;13.70;;;3.70;94.00;;;3.19;98.64;97296.09;5054728;28;20452;-78
2024/01/07 00:46:11;;;;;;;15.80;12.93;;;3.80;94.40;;;2.96;99.49;97288.19;5035149;28;20868;-80
2024/01/07 00:48:38;;;;;;;17.40;12.73;;;3.70;93.60;;;2.81;100.00;97290.84;5044486;28;20496;-78
2024/01/07 00:51:05;;;;;;;18.00;13.10;;;3.70;93.60;;;2.86;99.83;97290.31;5036607;28;20520;-79
2024/01/07 00:53:32;;;;;;;22.93;13.57;;;3.70;93.80;;;3.10;99.34;97299.88;5051610;28;20461;-80
2024/01/07 00:56:00;;;;;;;16.77;13.10;;;3.70;94.20;;;2.98;99.58;97294.16;5038009;28;20478;-78
2024/01/07 00:58:27;;;;;;;17.00;13.50;;;3.80;93.50;;;2.88;99.86;97306.94;5045030;28;20463;-78
2024/01/07 01:00:56;;;;;;;18.80;14.13;;;3.70;93.50;;;2.86;100.00;97300.97;5049436;28;20452;-78
2024/01/07 01:03:23;;;;;;;18.40;13.87;;;3.60;93.80;;;2.97;99.97;97305.84;5046360;28;21014;-79
2024/01/07 01:05:50;;;;;;;18.80;13.87;;;3.60;94.30;;;2.97;99.74;97305.84;5063893;28;20453;-77
2024/01/07 01:08:18;;;;;;;16.70;13.07;;;3.60;94.50;;;2.82;99.83;97306.69;5044971;28;21039;-79
2024/01/07 01:10:45;;;;;;;17.20;12.37;;;3.60;94.40;;;2.83;100.00;97316.34;5046172;28;20463;-79
2024/01/07 01:13:12;;;;;;;20.17;14.87;;;3.50;94.50;;;2.90;100.00;97312.94;5048587;28;20448;-77
2024/01/07 01:15:40;;;;;;;17.40;14.00;;;3.60;95.00;;;2.82;100.00;97308.50;5041068;28;20464;-78
2024/01/07 01:18:08;;;;;;;17.73;13.90;;;3.50;94.60;;;2.76;100.00;97306.59;5039281;28;20463;-78
2024/01/07 01:20:36;;;;;;;18.07;13.53;;;3.50;94.70;;;2.96;100.00;97314.88;5040720;28;20468;-78
2024/01/07 01:23:03;;;;;;;17.90;14.10;;;3.60;95.30;;;3.03;99.02;97310.44;5047192;28;20457;-77
2024/01/07 01:25:30;;;;;;;18.57;14.60;;;3.70;95.10;;;2.83;99.47;97319.00;5044275;28;20453;-78
2024/01/07 01:27:58;;;;;;;18.87;13.53;;;3.70;94.10;;;3.09;99.39;97323.03;5050731;28;20495;-78
2024/01/07 01:30:26;;;;;;;19.33;13.80;;;3.70;94.40;;;2.90;99.46;97323.59;5049276;28;20502;-76
2024/01/07 01:32:54;;;;;;;19.90;13.47;;;3.70;93.80;;;2.81;98.63;97299.69;5061214;28;20469;-78
2024/01/07 01:35:22;;;;;;;18.43;13.30;;;3.60;93.60;;;3.10;97.76;97324.69;5050510;28;20564;-77
2024/01/07 01:37:50;;;;;;;18.70;13.60;;;3.70;94.00;;;2.81;99.19;97321.03;5042094;28;20449;-76
2024/01/07 01:40:18;;;;;;;16.97;12.40;;;3.60;93.20;;;2.93;98.87;97332.06;5042301;28;20522;-70
2024/01/07 01:42:45;;;;;;;18.53;13.00;;;3.60;93.50;;;3.08;98.79;97324.06;5043157;28;20514;-69
2024/01/07 01:45:12;;;;;;;18.47;13.93;;;3.60;93.70;;;3.06;97.78;97323.41;5025957;28;21243;-70
2024/01/07 01:47:40;;;;;;;16.27;12.67;;;3.70;93.70;;;3.13;97.40;97328.84;5039192;28;20527;-70
2024/01/07 01:50:08;;;;;;;21.60;15.30;;;3.70;93.60;;;3.09;97.80;97323.03;5037970;28;20963;-69
2024/01/07 01:52:38;;;;;;;15.90;12.33;;;3.70;93.20;;;3.05;98.28;97327.09;5041093;28;21124;-68
2024/01/07 01:55:05;;;;;;;17.37;13.03;;;3.70;93.10;;;2.79;98.46;97320.38;5038447;28;20950;-69
2024/01/07 01:57:35;;;;;;;18.60;12.83;;;3.60;92.90;;;2.82;98.69;97322.69;5042949;28;20465;-70
2024/01/07 02:00:04;;;;;;;21.80;14.63;;;3.60;93.20;;;2.77;98.88;97335.72;5042135;28;20537;-69
2024/01/07 02:02:34;;;;;;;18.67;12.80;;;3.50;93.10;;;2.96;98.38;97320.22;5037888;28;20455;-70
2024/01/07 02:05:01;;;;;;;18.47;13.43;;;3.60;93.80;;;3.06;97.24;97322.59;5037679;28;20504;-68
2024/01/07 02:07:29;;;;;;;19.20;11.93;;;3.70;93.60;;;2.80;98.86;97330.03;5043062;28;20483;-68
2024/01/07 02:09:58;;;;;;;19.33;12.27;;;3.50;93.00;;;3.10;97.85;97324.69;5039722;28;20449;-68
2024/01/07 02:12:25;;;;;;;16.83;13.17;;;3.60;93.80;;;3.15;96.53;97331.34;5034796;28;20490;-71
2024/01/07 02:14:52;;;;;;;16.27;13.20;;;3.70;93.20;;;3.09;96.64;97325.72;5044157;28;20461;-70
2024/01/07 02:17:20;;;;;;;17.07;13.63;;;3.70;93.00;;;3.22;95.62;97313.56;5041116;28;20472;-72
2024/01/07 02:19:47;;;;;;;16.50;12.33;;;3.80;93.10;;;3.19;95.70;97329.94;5044664;28;20709;-73
2024/01/07 02:22:15;;;;;;;16.97;13.00;;;3.80;92.40;;;3.24;95.89;97332.88;5046960;28;20525;-69
2024/01/07 02:24:43;;;;;;;19.93;13.97;;;3.70;92.30;;;3.29;95.08;97330.50;5050540;28;20511;-70
2024/01/07 02:27:12;;;;;;;16.07;12.57;;;3.80;92.30;;;3.25;94.86;97316.69;5035495;28;20521;-69
2024/01/07 02:29:40;;;;;;;17.47;12.87;;;3.80;92.40;;;3.28;95.44;97331.53;5042740;28;20456;-70
2024/01/07 02:32:07;;;;;;;18.40;13.27;;;3.80;92.20;;;3.18;95.76;97323.78;5029521;28;20465;-70
2024/01/07 02:34:34;;;;;;;17.17;13.47;;;3.80;92.10;;;3.42;95.21;97337.03;5052278;28;20456;-70
2024/01/07 02:37:02;;;;;;;18.10;11.37;;;3.90;92.60;;;3.56;94.49;97344.16;5038561;28;23111;-69
2024/01/07 02:39:29;;;;;;;18.10;13.03;;;4.00;92.30;;;3.53;93.35;97339.22;5035971;28;20482;-70
2024/01/07 02:41:58;;;;;;;16.53;13.33;;;4.00;91.50;;;3.21;93.68;97299.41;5046275;28;20456;-69
2024/01/07 02:44:25;;;;;;;13.27;10.40;;;4.10;90.80;;;3.18;92.48;97330.97;5035457;28;20517;-69
2024/01/07 02:46:52;;;;;;;13.20;11.53;;;4.00;89.80;;;2.69;93.81;97338.50;5040675;28;20460;-69
2024/01/07 02:49:21;;;;;;;12.77;10.10;;;3.90;89.50;;;2.71;93.69;97344.47;5050828;28;20487;-69
2024/01/07 02:51:49;;;;;;;14.10;10.13;;;3.80;88.90;;;2.60;93.03;97342.25;5045717;28;20488;-69
2024/01/07 02:54:16;;;;;;;14.23;9.27;;;3.80;87.20;;;2.47;91.39;97346.34;5041665;28;20453;-69
2024/01/07 02:56:44;;;;;;;11.90;8.13;;;3.70;85.80;;;2.45;91.47;97344.88;5030610;28;20465;-69
2024/01/07 02:59:13;;;;;;;11.67;9.03;;;3.60;85.70;;;2.40;91.12;97348.91;5036367;28;20505;-68
2024/01/07 03:01:41;;;;;;;9.60;8.20;;;3.60;85.30;;;2.40;90.94;97350.75;5034344;28;20507;-70
2024/01/07 03:04:12;;;;;;;11.50;8.40;;;3.60;85.00;;;2.35;90.20;97342.44;5055622;28;20449;-69
2024/01/07 03:06:39;;;;;;;10.93;9.00;;;3.60;85.10;;;2.32;91.35;97348.13;5046256;28;20456;-70
2024/01/07 03:09:07;;;;;;;13.57;8.70;;;3.50;85.60;;;2.16;90.65;97355.25;5041347;28;20507;-69
2024/01/07 03:11:34;;;;;;;10.67;8.60;;;3.40;84.80;;;2.23;91.14;97353.56;5044124;28;20451;-69
2024/01/07 03:14:02;;;;;;;9.37;7.60;;;3.50;85.10;;;2.38;89.66;97352.78;5049285;28;20460;-71
2024/01/07 03:16:31;;;;;;;10.80;8.53;;;3.40;84.70;;;2.48;88.84;97358.66;5037878;28;21138;-69
2024/01/07 03:18:58;;;;;;;11.27;7.70;;;3.40;84.50;;;2.33;88.40;97325.81;5040811;28;20921;-69
2024/01/07 03:21:25;;;;;;;11.37;8.40;;;3.40;84.60;;;2.34;88.19;97362.97;5040017;28;20784;-69
2024/01/07 03:23:53;;;;;;;10.40;8.20;;;3.40;84.40;;;2.20;88.93;97359.25;5046650;28;20513;-69
2024/01/07 03:26:22;;;;;;;10.87;6.97;;;3.40;83.90;;;2.14;89.29;97367.94;5054974;28;20461;-68
2024/01/07 03:28:49;;;;;;;11.90;8.40;;;3.40;84.00;;;2.11;89.98;97363.78;5043227;28;20481;-69
2024/01/07 03:31:20;;;;;;;10.27;7.63;;;3.30;84.10;;;2.14;89.21;97365.28;5044144;28;20456;-70
2024/01/07 03:33:50;;;;;;;14.07;7.83;;;3.40;84.00;;;2.10;88.98;97363.97;5047511;28;20504;-69
2024/01/07 03:36:17;;;;;;;12.83;8.07;;;3.30;83.80;;;2.16;89.38;97371.25;5045634;28;20452;-68
2024/01/07 03:38:44;;;;;;;11.20;8.20;;;3.30;84.00;;;2.12;89.49;97365.47;5040341;28;20454;-69
2024/01/07 03:41:18;;;;;;;10.43;8.33;;;3.30;83.90;;;2.18;89.04;97363.09;5046425;28;20602;-68
2024/01/07 03:43:47;;;;;;;10.53;8.40;;;3.40;84.00;;;2.07;88.68;97367.81;5040490;28;20617;-69
2024/01/07 03:46:15;;;;;;;12.63;8.37;;;3.30;83.60;;;2.10;89.07;97371.97;5045732;28;20518;-69
2024/01/07 03:48:44;;;;;;;9.83;7.47;;;3.30;83.60;;;2.11;89.06;97370.97;5043905;28;20562;-70
2024/01/07 03:51:12;;;;;;;11.47;9.57;;;3.30;83.50;;;2.12;88.42;97373.47;5025168;28;20522;-67
2024/01/07 03:53:39;;;;;;;12.27;8.40;;;3.30;83.60;;;1.96;88.73;97366.41;5045943;28;20457;-68
2024/01/07 03:56:07;;;;;;;12.50;8.50;;;3.30;83.30;;;1.91;89.15;97378.59;5041436;28;20456;-70
2024/01/07 03:58:34;;;;;;;12.53;8.73;;;3.20;83.60;;;1.97;89.25;97375.19;5051288;28;20512;-68
2024/01/07 04:01:03;;;;;;;10.47;8.40;;;3.20;83.50;;;2.21;87.74;97379.56;5037721;28;20867;-69
2024/01/07 04:03:30;;;;;;;12.97;9.60;;;3.20;83.30;;;2.09;87.89;97381.78;5042457;28;20480;-69
2024/01/07 04:05:57;;;;;;;12.77;9.50;;;3.30;83.30;;;1.54;88.19;97314.38;5046023;28;20453;-69
2024/01/07 04:08:26;;;;;;;11.10;7.70;;;3.30;83.10;;;2.01;88.83;97405.84;5041611;28;20563;-69
2024/01/07 04:10:53;;;;;;;12.50;9.23;;;3.20;83.30;;;1.91;88.52;97389.25;5044708;28;20456;-69
2024/01/07 04:13:20;;;;;;;12.50;7.93;;;3.20;83.20;;;2.03;87.64;97401.16;5040850;28;20462;-69
2024/01/07 04:15:47;;;;;;;12.07;8.90;;;3.20;82.80;;;1.53;88.34;97350.00;5044532;28;20449;-69
2024/01/07 04:18:15;;;;;;;13.10;8.70;;;3.20;83.10;;;1.90;88.02;97408.91;5036012;28;20461;-69
2024/01/07 04:20:42;;;;;;;11.23;8.07;;;3.10;82.70;;;1.85;87.21;97406.75;5034453;28;20448;-71
2024/01/07 04:23:09;;;;;;;12.10;8.07;;;3.10;82.50;;;1.77;87.43;97415.63;5038251;28;20465;-69
2024/01/07 04:25:40;;;;;;;12.13;8.10;;;3.00;82.30;;;1.79;87.51;97418.13;5047412;28;20468;-69
2024/01/07 04:28:07;;;;;;;11.70;8.60;;;3.00;82.20;;;1.81;86.87;97421.44;5052866;28;20477;-69
2024/01/07 04:30:34;;;;;;;12.27;8.27;;;3.00;82.20;;;1.79;87.30;97428.78;5048039;28;20462;-70
2024/01/07 04:33:02;;;;;;;12.00;7.87;;;3.00;82.20;;;1.68;86.17;97428.13;5033200;28;20987;-70
2024/01/07 04:35:29;;;;;;;11.23;7.20;;;3.00;81.70;;;1.72;85.86;97435.78;5039109;28;21028;-69
2024/01/07 04:37:57;;;;;;;9.43;7.10;;;3.00;81.40;;;1.80;85.53;97435.75;5041975;28;20475;-71
2024/01/07 04:40:24;;;;;;;9.30;7.20;;;2.90;81.20;;;1.69;85.41;97443.13;5035935;28;20474;-70
2024/01/07 04:42:52;;;;;;;9.97;7.83;;;2.90;81.40;;;1.72;86.13;97438.44;5035710;28;20473;-70
2024/01/07 04:45:21;;;;;;;11.30;7.50;;;2.90;81.40;;;1.75;84.97;97440.78;5033675;28;20496;-70
2024/01/07 04:47:48;;;;;;;11.00;7.73;;;2.80;81.00;;;1.77;84.83;97439.59;5040603;28;20524;-69
2024/01/07 04:50:19;;;;;;;10.83;7.70;;;2.80;81.10;;;1.79;85.09;97448.22;5056052;28;20802;-69
2024/01/07 04:52:46;;;;;;;13.10;8.63;;;2.80;81.40;;;1.80;85.20;97446.41;5040417;28;20479;-69
2024/01/07 04:55:14;;;;;;;10.73;7.50;;;2.80;81.30;;;1.86;85.19;97447.56;5057765;28;20466;-70
2024/01/07 04:57:41;;;;;;;11.83;7.60;;;2.80;81.50;;;1.83;85.28;97446.06;5043658;28;20487;-70
2024/01/07 05:00:11;;;;;;;10.20;7.30;;;2.80;81.40;;;1.83;85.01;97456.72;5050832;28;20956;-70
2024/01/07 05:02:39;;;;;;;13.17;8.60;;;2.90;81.30;;;1.77;85.52;97452.09;5042693;28;20496;-71
2024/01/07 05:05:08;;;;;;;10.50;7.20;;;2.80;81.40;;;1.77;85.25;97457.41;5038214;28;20823;-69
2024/01/07 05:07:38;;;;;;;11.33;8.23;;;2.80;81.20;;;1.78;85.06;97469.72;5057024;28;20456;-69
2024/01/07 05:10:07;;;;;;;10.40;7.00;;;2.80;81.30;;;1.37;85.35;97457.38;5041203;28;20475;-68
2024/01/07 05:12:34;;;;;;;7.70;5.83;;;2.70;80.70;;;1.36;84.64;97471.69;5042802;28;20451;-68
2024/01/07 05:15:02;;;;;;;7.83;5.90;;;2.70;80.40;;;1.35;85.50;97470.84;5045516;28;20459;-68
2024/01/07 05:17:31;;;;;;;7.23;5.90;;;2.70;80.40;;;1.35;84.75;97470.00;5039198;28;20463;-70
2024/01/07 05:19:58;;;;;;;6.40;5.50;;;2.60;80.30;;;1.31;84.37;97471.38;5041335;28;20451;-70
2024/01/07 05:22:26;;;;;;;10.43;6.47;;;2.60;80.00;;;1.36;84.34;97477.84;5037662;28;20461;-69
2024/01/07 05:24:53;;;;;;;10.60;6.43;;;2.60;80.10;;;1.31;84.13;97490.00;5045980;28;20804;-69
2024/01/07 05:27:20;;;;;;;9.10;6.17;;;2.60;80.10;;;1.25;84.09;97486.19;5046329;28;20466;-69
2024/01/07 05:29:47;;;;;;;7.20;5.90;;;2.50;79.60;;;1.39;84.06;97482.81;5043515;28;20484;-69
2024/01/07 05:32:14;;;;;;;8.47;5.90;;;2.50;79.90;;;1.41;83.65;97496.78;5043420;28;20509;-69
2024/01/07 05:34:44;;;;;;;8.50;6.07;;;2.50;80.00;;;1.44;83.87;97495.63;5043039;28;20461;-69
2024/01/07 05:37:11;;;;;;;7.10;5.93;;;2.50;80.00;;;1.42;83.37;97497.63;5038483;28;20471;-68
2024/01/07 05:39:38;;;;;;;9.10;5.80;;;2.50;80.00;;;1.38;83.14;97496.31;5045516;28;20473;-68
2024/01/07 05:42:07;;;;;;;10.13;6.17;;;2.50;79.80;;;1.37;82.82;97499.97;5042377;28;20462;-69
2024/01/07 05:44:34;;;;;;;8.93;6.00;;;2.40;79.60;;;1.31;83.53;97496.16;5046585;28;20532;-69
2024/01/07 05:47:01;;;;;;;7.87;5.63;;;2.40;79.80;;;1.21;83.58;97498.16;5042197;28;20449;-70
2024/01/07 05:49:29;;;;;;;8.07;6.23;;;2.40;79.60;;;1.08;83.56;97510.16;5042726;28;20484;-70
2024/01/07 05:51:58;;;;;;;10.23;6.70;;;2.40;79.80;;;1.02;83.54;97505.50;5039113;28;20568;-71
2024/01/07 05:54:25;;;;;;;8.20;5.83;;;2.40;79.30;;;1.05;83.64;97513.16;5047389;28;20573;-70
2024/01/07 05:56:53;;;;;;;7.87;5.50;;;2.30;79.30;;;1.05;83.68;97507.81;5035424;28;20452;-69
2024/01/07 05:59:21;;;;;;;8.00;5.80;;;2.30;79.30;;;0.98;83.60;97515.66;5043307;28;20521;-69
2024/01/07 06:01:48;;;;;;;8.20;6.10;;;2.30;79.10;;;0.98;83.86;97517.47;5038752;28;20455;-69
2024/01/07 06:04:15;;;;;;;9.70;6.00;;;2.30;79.10;;;0.97;83.30;97510.47;5041144;28;20456;-69
2024/01/07 06:06:42;;;;;;;6.47;5.70;;;2.30;79.10;;;0.99;83.51;97513.81;5041046;28;20472;-71
2024/01/07 06:09:13;;;;;;;7.30;5.30;;;2.30;79.00;;;0.93;83.36;97514.47;5038643;28;20504;-69
2024/01/07 06:11:40;;;;;;;9.93;6.70;;;2.20;79.00;;;0.92;83.20;97534.09;5042514;28;20508;-69
2024/01/07 06:14:07;;;;;;;9.77;5.83;;;2.20;78.80;;;1.00;82.98;97528.78;5044927;28;20574;-69
2024/01/07 06:16:34;;;;;;;9.30;6.03;;;2.20;79.00;;;0.95;83.40;97531.09;5040927;28;20458;-70
2024/01/07 06:19:02;;;;;;;7.83;5.93;;;2.30;78.90;;;0.94;83.28;97521.47;5053164;28;20515;-69
2024/01/07 06:21:29;;;;;;;7.57;5.47;;;2.20;78.90;;;0.92;83.31;97531.44;5044402;28;20462;-70
2024/01/07 06:23:56;;;;;;;11.30;6.67;;;2.20;78.90;;;0.82;83.45;97528.94;5040211;28;20474;-69
2024/01/07 06:26:25;;;;;;;11.70;7.83;;;2.20;78.90;;;-0.19;83.02;97388.09;5044894;28;20851;-69
2024/01/07 06:28:52;;;;;;;10.33;7.03;;;2.20;78.90;;;0.84;83.24;97527.78;5038825;28;20490;-69
2024/01/07 06:31:19;;;;;;;7.90;6.20;;;2.20;78.70;;;0.78;83.77;97533.75;5040820;28;21246;-69
2024/01/07 06:33:46;;;;;;;10.03;6.20;;;2.10;78.90;;;0.79;83.14;97535.41;5045520;28;20964;-69
2024/01/07 06:36:14;;;;;;;9.30;7.47;;;2.10;78.70;;;0.79;83.44;97538.06;5046190;28;20451;-70
2024/01/07 06:38:41;;;;;;;14.37;7.00;;;2.10;78.80;;;0.77;83.53;97542.72;5043780;28;20487;-69
2024/01/07 06:41:09;;;;;;;13.00;7.93;;;2.10;78.80;;;0.71;84.36;97548.72;5042126;28;20469;-70
2024/01/07 06:43:38;;;;;;;12.10;7.97;;;2.00;78.80;;;0.78;83.98;97548.91;5052795;28;20960;-69
2024/01/07 06:46:05;;;;;;;10.33;7.50;;;2.10;79.10;;;0.81;83.60;97560.00;5041440;28;20521;-70
2024/01/07 06:48:33;;;;;;;12.10;8.60;;;2.10;79.00;;;0.80;83.42;97553.03;5041306;28;20863;-68
2024/01/07 06:51:03;;;;;;;12.00;8.00;;;2.10;78.80;;;0.87;84.13;97552.38;5043670;28;20467;-69
2024/01/07 06:53:30;;;;;;;9.63;7.23;;;2.10;79.20;;;0.74;84.23;97548.38;5048639;28;20539;-70
2024/01/07 06:55:58;;;;;;;11.57;8.23;;;2.00;79.20;;;0.70;84.45;97544.41;5038472;28;20475;-68
2024/01/07 06:58:25;;;;;;;12.63;8.60;;;2.00;79.30;;;0.75;84.13;97555.38;5035482;28;21292;-69
2024/01/07 07:00:54;;;;;;;12.10;8.07;;;2.00;79.10;;;0.79;83.99;97548.72;5038450;28;20470;-70
2024/01/07 07:03:21;;;;;;;12.20;7.97;;;2.10;79.20;;;0.81;83.96;97562.66;5039912;28;20533;-70
2024/01/07 07:05:48;;;;;;;14.40;9.13;;;2.10;79.20;;;0.73;83.32;97568.00;5044014;28;20465;-69
2024/01/07 07:08:17;;;;;;;11.13;8.20;;;2.10;78.80;;;0.69;83.67;97567.47;5043557;28;20464;-70
2024/01/07 07:10:44;;;;;;;11.70;7.80;;;2.00;78.80;;;0.69;83.75;97564.00;5035601;28;20474;-69
2024/01/07 07:13:13;;;;;;;14.07;7.93;;;2.00;78.90;;;0.59;84.56;97569.44;5045048;28;20478;-69
2024/01/07 07:15:40;;;;;;;14.77;8.47;;;1.90;78.90;;;0.69;83.85;97562.16;5027114;28;20966;-69
2024/01/07 07:18:12;;;;;;;13.60;8.37;;;2.00;79.00;;;0.66;83.32;97577.59;5045158;28;20516;-70
2024/01/07 07:20:39;;;;;;;12.60;8.50;;;2.00;78.70;;;0.65;83.41;97581.25;5044939;28;20447;-71
2024/01/07 07:23:07;;;;;;;13.90;9.57;;;1.90;78.50;;;0.48;83.29;97565.28;5038286;28;20531;-69
2024/01/07 07:25:34;;;;;;;12.77;8.70;;;1.90;78.40;;;0.67;83.08;97579.28;5044145;28;20569;-70
2024/01/07 07:28:01;;;;;;;15.07;9.43;;;1.90;78.50;;;0.63;82.49;97585.91;5039771;28;20459;-69
2024/01/07 07:30:28;;;;;;;15.23;9.50;;;1.90;78.10;;;0.62;82.39;97589.56;5040251;28;20482;-69
2024/01/07 07:32:56;;;;;;;11.93;8.97;;;1.90;78.10;;;0.62;82.66;97587.75;5038859;28;20449;-70
2024/01/07 07:35:27;;;;;;;12.20;8.70;;;1.90;78.20;;;0.68;82.08;97586.25;5044767;28;20461;-69
2024/01/07 07:37:56;;;;;;;14.80;9.63;;;1.80;78.10;;;0.82;81.78;97598.91;5040409;28;20476;-70
2024/01/07 07:40:23;;;;;;;14.57;10.10;;;1.80;78.30;;;0.61;81.70;97601.19;5046175;28;20923;-69
2024/01/07 07:42:51;;;;;;;13.03;10.03;;;1.90;77.80;;;0.49;81.83;97598.03;5038513;28;20522;-68
2024/01/07 07:45:18;;;;;;;14.70;9.60;;;1.80;77.60;;;0.39;82.03;97611.44;5043687;28;20448;-69
2024/01/07 07:47:45;;;;;;;14.43;9.87;;;1.80;77.60;;;0.41;82.11;97612.13;5039121;28;20459;-70
2024/01/07 07:50:13;;;;;;;13.27;9.80;;;1.80;77.60;;;0.35;81.71;97608.28;5035549;28;21324;-70
2024/01/07 07:52:43;;;;;;;15.27;10.90;;;1.80;77.50;;;0.41;81.27;97617.44;5040363;28;20450;-69
2024/01/07 07:55:11;;;;;;;14.10;9.43;;;1.70;77.30;;;0.46;81.41;97620.44;5035590;28;20534;-69
2024/01/07 07:57:39;;;;;;;15.30;10.23;;;1.80;77.30;;;0.40;81.85;97637.03;5044696;28;20452;-69
2024/01/07 08:00:12;;;;;;;13.77;9.30;;;1.70;77.70;;;0.40;81.25;97637.84;5048021;28;20456;-73
2024/01/07 08:02:39;;;;;;;17.30;10.67;;;1.70;77.20;;;0.42;81.17;97627.06;5047636;28;20745;-74
2024/01/07 08:05:08;;;;;;;13.40;10.17;;;1.70;77.10;;;0.57;80.94;97637.91;5046868;28;20460;-72
2024/01/07 08:07:35;;;;;;;15.03;10.13;;;1.80;77.20;;;0.55;80.92;97645.22;5039394;28;20450;-67
2024/01/07 08:10:08;;;;;;;14.50;9.47;;;1.80;77.00;;;0.61;80.90;97646.41;5049758;28;20476;-67
2024/01/07 08:12:36;;;;;;;13.43;9.20;;;1.90;77.10;;;0.56;80.19;97647.72;5033108;28;20585;-69
2024/01/07 08:15:04;;;;;;;15.77;10.20;;;1.80;76.90;;;0.42;80.63;97629.72;5043358;28;20452;-66
2024/01/07 08:17:31;;;;;;;15.00;9.03;;;1.80;76.80;;;0.40;81.52;97651.13;5026637;28;20456;-67
2024/01/07 08:19:58;;;;;;;14.83;10.27;;;1.80;77.00;;;0.45;80.69;97661.31;5046760;28;20460;-67
2024/01/07 08:22:27;;;;;;;12.90;10.40;;;1.80;77.00;;;0.52;80.75;97653.53;5046424;28;20993;-67
2024/01/07 08:24:54;;;;;;;14.00;9.97;;;1.80;77.00;;;0.47;81.22;97654.00;5040446;28;20941;-67
2024/01/07 08:27:23;;;;;;;12.73;9.47;;;1.80;77.10;;;0.55;81.18;97656.69;5042095;28;20854;-67
2024/01/07 08:29:50;;;;;;;12.73;9.37;;;1.80;77.50;;;0.60;81.12;97652.72;5046135;28;20482;-67
2024/01/07 08:32:17;;;;;;;14.10;8.87;;;1.80;77.10;;;0.47;80.30;97654.00;5035065;28;20455;-67
2024/01/07 08:34:45;;;;;;;14.63;9.50;;;1.80;76.80;;;0.35;80.18;97657.91;5038637;28;20470;-68
2024/01/07 08:37:12;;;;;;;16.00;9.13;;;1.70;76.40;;;0.27;81.15;97661.38;5039353;28;20452;-68
2024/01/07 08:39:39;;;;;;;14.50;10.30;;;1.70;76.70;;;0.18;81.41;97668.47;5049075;28;20468;-67
2024/01/07 08:42:07;;;;;;;14.70;8.90;;;1.60;76.70;;;0.19;80.94;97670.13;5034756;28;20459;-66
2024/01/07 08:44:36;;;;;;;15.00;9.87;;;1.50;76.70;;;0.21;81.27;97662.03;5035685;28;20467;-68
2024/01/07 08:47:03;;;;;;;15.10;9.90;;;1.50;76.70;;;0.24;81.19;97681.16;5037197;28;20984;-67
2024/01/07 08:49:32;;;;;;;13.23;10.10;;;1.60;76.70;;;0.02;81.35;97676.34;5035911;28;20499;-67
2024/01/07 08:51:59;;;;;;;15.07;11.00;;;1.50;76.50;;;0.13;81.24;97682.22;5033778;28;20489;-68
2024/01/07 08:54:27;;;;;;;13.33;10.23;;;1.40;76.80;;;0.13;81.67;97686.72;5031998;28;20465;-68
2024/01/07 08:56:54;;;;;;;12.67;9.50;;;1.40;76.80;;;0.03;81.24;97693.94;5034433;28;20963;-68
2024/01/07 08:59:21;;;;;;;13.23;9.37;;;1.40;76.80;;;0.08;81.66;97707.63;5033018;28;20519;-66
2024/01/07 09:01:50;;;;;;;14.40;10.50;;;1.40;76.70;;;-0.02;81.50;97697.91;5042011;28;20485;-69
2024/01/07 09:04:18;;;;;;;14.13;11.10;;;1.40;76.70;;;-0.03;81.94;97700.72;5043866;28;20493;-69
2024/01/07 09:06:46;;;;;;;13.47;9.43;;;1.40;76.80;;;0.02;81.62;97700.25;5045368;28;20455;-67
2024/01/07 09:09:13;;;;;;;16.83;10.83;;;1.40;77.00;;;-0.04;82.03;97709.69;5034554;28;23330;-67
2024/01/07 09:11:40;;;;;;;15.60;10.33;;;1.40;76.90;;;-0.05;81.93;97714.19;5040228;28;20466;-68
2024/01/07 09:14:08;;;;;;;16.37;9.93;;;1.40;77.00;;;-0.05;82.37;97727.47;5042280;28;20466;-67
2024/01/07 09:16:36;;;;;;;20.73;7.93;;;1.30;77.10;;;-0.12;83.39;97722.91;5035051;28;20471;-66
2024/01/07 09:19:09;;;;;;;17.27;11.20;;;1.30;77.50;;;-0.29;82.69;97728.09;5037026;28;20465;-67
2024/01/07 09:21:36;;;;;;;17.07;10.93;;;1.20;77.00;;;-0.48;83.32;97724.59;5056086;28;20468;-68
2024/01/07 09:24:05;;;;;;;16.07;10.50;;;1.10;77.20;;;-0.46;83.22;97757.13;5044083;28;20543;-71
2024/01/07 09:26:32;;;;;;;13.00;7.97;;;1.00;77.20;;;-0.84;83.71;97683.97;5038787;28;20501;-69
2024/01/07 09:29:02;;;;;;;15.47;11.23;;;1.00;77.50;;;-0.41;83.59;97742.59;5042978;28;20512;-70
2024/01/07 09:31:29;;;;;;;19.77;11.87;;;1.00;77.40;;;-0.35;83.51;97744.63;5039526;28;20482;-72
2024/01/07 09:33:56;;;;;;;16.37;11.93;;;1.00;77.50;;;-0.14;82.39;97754.94;5035904;28;21303;-68
2024/01/07 09:36:25;;;;;;;15.03;11.67;;;1.00;77.40;;;-0.43;83.08;97756.84;5029041;28;20464;-69
2024/01/07 09:38:53;;;;;;;17.73;11.90;;;1.00;77.10;;;-0.64;83.61;97757.16;5042038;28;20632;-68
2024/01/07 09:41:21;;;;;;;18.50;13.17;;;0.80;77.10;;;-0.58;83.33;97755.72;5042628;28;20462;-68
2024/01/07 09:43:48;;;;;;;18.97;11.30;;;0.80;77.30;;;-0.57;83.43;97750.22;5046694;28;20476;-67
2024/01/07 09:46:17;;;;;;;16.80;10.77;;;0.80;77.30;;;-0.54;83.31;97758.88;5046696;28;20486;-67
2024/01/07 09:48:44;;;;;;;19.43;12.17;;;0.80;77.20;;;-0.55;83.12;97749.25;5045002;28;20452;-67
2024/01/07 09:51:12;;;;;;;16.87;12.57;;;0.80;77.10;;;-0.66;83.81;97743.19;5044239;28;20502;-67
2024/01/07 09:53:42;;;;;;;17.03;11.87;;;0.90;77.50;;;-0.50;82.86;97758.44;5053399;28;20452;-67
2024/01/07 09:56:16;;;;;;;17.83;11.13;;;0.90;77.50;;;-0.54;82.89;97766.84;5033768;28;20604;-68
2024/01/07 09:58:43;;;;;;;17.50;11.60;;;0.90;77.00;;;-0.60;83.29;97757.69;5036073;28;20473;-68
2024/01/07 10:01:11;;;;;;;19.70;11.97;;;0.90;77.30;;;-0.35;82.89;97774.69;5054826;28;20526;-68
2024/01/07 10:03:38;;;;;;;16.33;11.50;;;1.00;77.50;;;-0.55;82.76;97768.69;5043404;28;20809;-71
2024/01/07 10:06:06;;;;;;;13.83;10.03;;;0.90;76.90;;;-0.75;82.80;97730.81;5040571;28;20472;-68
2024/01/07 10:08:34;;;;;;;21.33;13.63;;;0.90;77.00;;;-0.49;83.04;97783.16;5041756;28;20457;-68
2024/01/07 10:11:03;;;;;;;19.20;11.53;;;0.90;77.10;;;-1.09;82.58;97711.06;5039063;28;20895;-68
2024/01/07 10:13:32;;;;;;;15.67;11.13;;;0.80;76.80;;;-0.64;82.49;97783.69;5031560;28;20596;-70
2024/01/07 10:15:59;;;;;;;21.30;11.33;;;0.70;76.60;;;-0.73;81.83;97779.25;5037395;28;20458;-67
2024/01/07 10:18:27;;;;;;;19.03;12.93;;;0.70;76.30;;;-0.64;81.85;97782.84;5039647;28;20468;-68
2024/01/07 10:20:55;;;;;;;14.43;10.50;;;0.70;76.40;;;-0.69;81.39;97785.94;5043835;28;21249;-68
2024/01/07 10:23:22;;;;;;;16.57;11.23;;;0.70;76.20;;;-0.68;81.62;97779.66;5041694;28;20462;-68
2024/01/07 10:25:49;;;;;;;20.20;11.90;;;0.70;76.30;;;-0.59;81.98;97784.06;5038996;28;20469;-67